sensor_id;sensor_type;location;lat;lon;timestamp;P1;durP1;ratioP1;P2;durP2;ratioP2
68377;SDS011;55322;48.146;11.516;2023-05-10T00:00:36;4.10;;;0.90;;
68377;SDS011;55322;48.146;11.516;2023-05-10T00:03:02;3.83;;;0.90;;
68377;SDS011;55322;48.146;11.516;2023-05-10T00:05:29;4.63;;;1.00;;
68377;SDS011;55322;48.146;11.516;2023-05-10T00:07:55;3.90;;;1.00;;
68377;SDS011;55322;48.146;11.516;2023-05-10T00:10:20;3.87;;;0.83;;
68377;SDS011;55322;48.146;11.516;2023-05-10T00:12:46;4.37;;;0.90;;
68377;SDS011;55322;48.146;11.516;2023-05-10T00:15:11;3.50;;;0.80;;
68377;SDS011;55322;48.146;11.516;2023-05-10T00:17:36;5.33;;;0.90;;
68377;SDS011;55322;48.146;11.516;2023-05-10T00:20:02;3.50;;;0.60;;
68377;SDS011;55322;48.146;11.516;2023-05-10T00:22:29;3.72;;;0.80;;
68377;SDS011;55322;48.146;11.516;2023-05-10T00:24:55;4.50;;;0.80;;
68377;SDS011;55322;48.146;11.516;2023-05-10T00:27:20;4.00;;;0.77;;
68377;SDS011;55322;48.146;11.516;2023-05-10T00:29:45;4.23;;;0.90;;
68377;SDS011;55322;48.146;11.516;2023-05-10T00:32:11;3.47;;;0.70;;
68377;SDS011;55322;48.146;11.516;2023-05-10T00:34:36;4.03;;;0.90;;
68377;SDS011;55322;48.146;11.516;2023-05-10T00:37:01;4.60;;;0.97;;
68377;SDS011;55322;48.146;11.516;2023-05-10T00:39:27;3.43;;;0.70;;
68377;SDS011;55322;48.146;11.516;2023-05-10T00:41:53;3.57;;;0.67;;
68377;SDS011;55322;48.146;11.516;2023-05-10T00:44:19;4.05;;;0.60;;
68377;SDS011;55322;48.146;11.516;2023-05-10T00:46:44;3.73;;;0.60;;
68377;SDS011;55322;48.146;11.516;2023-05-10T00:49:10;3.43;;;0.60;;
68377;SDS011;55322;48.146;11.516;2023-05-10T00:51:36;3.40;;;0.60;;
68377;SDS011;55322;48.146;11.516;2023-05-10T00:54:02;4.63;;;0.70;;
68377;SDS011;55322;48.146;11.516;2023-05-10T00:56:28;3.47;;;0.60;;
68377;SDS011;55322;48.146;11.516;2023-05-10T00:58:54;3.30;;;0.60;;
68377;SDS011;55322;48.146;11.516;2023-05-10T01:01:20;3.90;;;0.70;;
68377;SDS011;55322;48.146;11.516;2023-05-10T01:03:46;3.20;;;0.70;;
68377;SDS011;55322;48.146;11.516;2023-05-10T01:06:11;2.80;;;0.52;;
68377;SDS011;55322;48.146;11.516;2023-05-10T01:08:37;3.27;;;0.63;;
68377;SDS011;55322;48.146;11.516;2023-05-10T01:11:03;4.53;;;0.70;;
68377;SDS011;55322;48.146;11.516;2023-05-10T01:13:33;3.63;;;0.53;;
68377;SDS011;55322;48.146;11.516;2023-05-10T01:16:01;2.90;;;0.50;;
68377;SDS011;55322;48.146;11.516;2023-05-10T01:18:29;6.38;;;0.50;;
68377;SDS011;55322;48.146;11.516;2023-05-10T01:21:02;3.47;;;0.60;;
68377;SDS011;55322;48.146;11.516;2023-05-10T01:23:39;3.67;;;0.50;;
68377;SDS011;55322;48.146;11.516;2023-05-10T01:26:19;3.13;;;0.60;;
68377;SDS011;55322;48.146;11.516;2023-05-10T01:41:10;2.72;;;0.43;;
68377;SDS011;55322;48.146;11.516;2023-05-10T01:43:50;2.85;;;0.50;;
68377;SDS011;55322;48.146;11.516;2023-05-10T01:46:24;2.55;;;0.50;;
68377;SDS011;55322;48.146;11.516;2023-05-10T01:49:00;3.73;;;0.50;;
68377;SDS011;55322;48.146;11.516;2023-05-10T01:51:28;3.60;;;0.43;;
68377;SDS011;55322;48.146;11.516;2023-05-10T01:54:01;4.65;;;0.60;;
68377;SDS011;55322;48.146;11.516;2023-05-10T01:56:29;3.25;;;0.50;;
68377;SDS011;55322;48.146;11.516;2023-05-10T01:58:56;3.08;;;0.50;;
68377;SDS011;55322;48.146;11.516;2023-05-10T02:01:25;2.43;;;0.40;;
68377;SDS011;55322;48.146;11.516;2023-05-10T02:03:52;2.13;;;0.40;;
68377;SDS011;55322;48.146;11.516;2023-05-10T02:06:19;4.20;;;0.50;;
68377;SDS011;55322;48.146;11.516;2023-05-10T02:08:46;2.97;;;0.40;;
68377;SDS011;55322;48.146;11.516;2023-05-10T02:11:14;3.30;;;0.50;;
68377;SDS011;55322;48.146;11.516;2023-05-10T02:13:39;3.07;;;0.50;;
68377;SDS011;55322;48.146;11.516;2023-05-10T02:16:07;2.45;;;0.40;;
68377;SDS011;55322;48.146;11.516;2023-05-10T02:18:33;3.00;;;0.47;;
68377;SDS011;55322;48.146;11.516;2023-05-10T02:21:01;2.97;;;0.50;;
68377;SDS011;55322;48.146;11.516;2023-05-10T02:23:27;4.93;;;0.60;;
68377;SDS011;55322;48.146;11.516;2023-05-10T02:25:53;2.75;;;0.47;;
68377;SDS011;55322;48.146;11.516;2023-05-10T02:28:20;2.53;;;0.40;;
68377;SDS011;55322;48.146;11.516;2023-05-10T02:30:48;2.50;;;0.40;;
68377;SDS011;55322;48.146;11.516;2023-05-10T02:33:14;2.17;;;0.38;;
68377;SDS011;55322;48.146;11.516;2023-05-10T02:35:39;2.90;;;0.50;;
68377;SDS011;55322;48.146;11.516;2023-05-10T02:38:05;2.42;;;0.50;;
68377;SDS011;55322;48.146;11.516;2023-05-10T02:40:32;4.63;;;0.50;;
68377;SDS011;55322;48.146;11.516;2023-05-10T02:42:59;2.70;;;0.40;;
68377;SDS011;55322;48.146;11.516;2023-05-10T02:45:27;2.77;;;0.40;;
68377;SDS011;55322;48.146;11.516;2023-05-10T02:47:55;2.95;;;0.47;;
68377;SDS011;55322;48.146;11.516;2023-05-10T02:50:21;2.85;;;0.50;;
68377;SDS011;55322;48.146;11.516;2023-05-10T02:52:49;3.50;;;0.40;;
68377;SDS011;55322;48.146;11.516;2023-05-10T02:55:17;4.30;;;0.50;;
68377;SDS011;55322;48.146;11.516;2023-05-10T02:57:48;2.60;;;0.50;;
68377;SDS011;55322;48.146;11.516;2023-05-10T03:00:17;3.35;;;0.45;;
68377;SDS011;55322;48.146;11.516;2023-05-10T03:02:43;2.67;;;0.52;;
68377;SDS011;55322;48.146;11.516;2023-05-10T03:05:08;2.57;;;0.40;;
68377;SDS011;55322;48.146;11.516;2023-05-10T03:07:33;3.00;;;0.50;;
68377;SDS011;55322;48.146;11.516;2023-05-10T03:09:59;2.33;;;0.40;;
68377;SDS011;55322;48.146;11.516;2023-05-10T03:18:09;2.72;;;0.50;;
68377;SDS011;55322;48.146;11.516;2023-05-10T03:20:43;4.18;;;0.55;;
68377;SDS011;55322;48.146;11.516;2023-05-10T03:23:18;2.93;;;0.50;;
68377;SDS011;55322;48.146;11.516;2023-05-10T03:25:48;2.42;;;0.50;;
68377;SDS011;55322;48.146;11.516;2023-05-10T03:28:14;3.67;;;0.50;;
68377;SDS011;55322;48.146;11.516;2023-05-10T03:30:42;2.55;;;0.30;;
68377;SDS011;55322;48.146;11.516;2023-05-10T03:33:09;2.97;;;0.50;;
68377;SDS011;55322;48.146;11.516;2023-05-10T03:35:35;2.47;;;0.40;;
68377;SDS011;55322;48.146;11.516;2023-05-10T03:38:01;3.47;;;0.50;;
68377;SDS011;55322;48.146;11.516;2023-05-10T03:40:26;2.57;;;0.40;;
68377;SDS011;55322;48.146;11.516;2023-05-10T03:42:54;2.75;;;0.40;;
68377;SDS011;55322;48.146;11.516;2023-05-10T03:45:20;2.42;;;0.40;;
68377;SDS011;55322;48.146;11.516;2023-05-10T03:47:45;2.30;;;0.37;;
68377;SDS011;55322;48.146;11.516;2023-05-10T03:50:10;3.17;;;0.40;;
68377;SDS011;55322;48.146;11.516;2023-05-10T03:52:36;4.80;;;0.60;;
68377;SDS011;55322;48.146;11.516;2023-05-10T03:55:01;4.00;;;0.50;;
68377;SDS011;55322;48.146;11.516;2023-05-10T03:57:28;2.85;;;0.50;;
68377;SDS011;55322;48.146;11.516;2023-05-10T03:59:53;2.40;;;0.40;;
68377;SDS011;55322;48.146;11.516;2023-05-10T04:02:19;3.17;;;0.40;;
68377;SDS011;55322;48.146;11.516;2023-05-10T04:04:44;2.63;;;0.40;;
68377;SDS011;55322;48.146;11.516;2023-05-10T04:07:10;4.17;;;0.40;;
68377;SDS011;55322;48.146;11.516;2023-05-10T04:09:35;2.60;;;0.40;;
68377;SDS011;55322;48.146;11.516;2023-05-10T04:12:00;2.50;;;0.33;;
68377;SDS011;55322;48.146;11.516;2023-05-10T04:14:27;3.08;;;0.40;;
68377;SDS011;55322;48.146;11.516;2023-05-10T04:16:52;2.70;;;0.40;;
68377;SDS011;55322;48.146;11.516;2023-05-10T04:19:18;1.87;;;0.30;;
68377;SDS011;55322;48.146;11.516;2023-05-10T04:21:43;2.40;;;0.32;;
68377;SDS011;55322;48.146;11.516;2023-05-10T04:24:08;2.27;;;0.30;;
68377;SDS011;55322;48.146;11.516;2023-05-10T04:26:34;2.93;;;0.50;;
68377;SDS011;55322;48.146;11.516;2023-05-10T04:28:59;2.47;;;0.40;;
68377;SDS011;55322;48.146;11.516;2023-05-10T04:31:24;2.30;;;0.30;;
68377;SDS011;55322;48.146;11.516;2023-05-10T04:33:50;5.13;;;0.57;;
68377;SDS011;55322;48.146;11.516;2023-05-10T04:36:16;3.00;;;0.40;;
68377;SDS011;55322;48.146;11.516;2023-05-10T04:38:41;4.27;;;0.40;;
68377;SDS011;55322;48.146;11.516;2023-05-10T04:41:07;2.53;;;0.40;;
68377;SDS011;55322;48.146;11.516;2023-05-10T04:43:34;2.08;;;0.30;;
68377;SDS011;55322;48.146;11.516;2023-05-10T04:46:00;2.78;;;0.40;;
68377;SDS011;55322;48.146;11.516;2023-05-10T04:48:25;3.27;;;0.43;;
68377;SDS011;55322;48.146;11.516;2023-05-10T04:50:51;4.13;;;1.00;;
68377;SDS011;55322;48.146;11.516;2023-05-10T04:53:16;2.30;;;0.35;;
68377;SDS011;55322;48.146;11.516;2023-05-10T04:55:42;2.80;;;0.43;;
68377;SDS011;55322;48.146;11.516;2023-05-10T04:58:07;3.23;;;0.40;;
68377;SDS011;55322;48.146;11.516;2023-05-10T05:00:32;4.03;;;0.50;;
68377;SDS011;55322;48.146;11.516;2023-05-10T05:02:58;2.40;;;0.40;;
68377;SDS011;55322;48.146;11.516;2023-05-10T05:05:23;2.60;;;0.50;;
68377;SDS011;55322;48.146;11.516;2023-05-10T05:07:49;2.20;;;0.40;;
68377;SDS011;55322;48.146;11.516;2023-05-10T05:10:14;4.87;;;0.47;;
68377;SDS011;55322;48.146;11.516;2023-05-10T05:12:40;2.07;;;0.30;;
68377;SDS011;55322;48.146;11.516;2023-05-10T05:15:05;2.23;;;0.40;;
68377;SDS011;55322;48.146;11.516;2023-05-10T05:17:31;2.63;;;0.38;;
68377;SDS011;55322;48.146;11.516;2023-05-10T05:19:56;2.27;;;0.40;;
68377;SDS011;55322;48.146;11.516;2023-05-10T05:22:22;2.50;;;0.33;;
68377;SDS011;55322;48.146;11.516;2023-05-10T05:24:53;1.95;;;0.30;;
68377;SDS011;55322;48.146;11.516;2023-05-10T05:27:19;1.80;;;0.30;;
68377;SDS011;55322;48.146;11.516;2023-05-10T05:29:47;1.70;;;0.30;;
68377;SDS011;55322;48.146;11.516;2023-05-10T05:32:12;3.55;;;0.30;;
68377;SDS011;55322;48.146;11.516;2023-05-10T05:34:38;2.53;;;0.30;;
68377;SDS011;55322;48.146;11.516;2023-05-10T05:37:03;1.80;;;0.30;;
68377;SDS011;55322;48.146;11.516;2023-05-10T05:39:28;3.17;;;0.33;;
68377;SDS011;55322;48.146;11.516;2023-05-10T05:41:54;2.67;;;0.40;;
68377;SDS011;55322;48.146;11.516;2023-05-10T05:44:19;2.72;;;0.40;;
68377;SDS011;55322;48.146;11.516;2023-05-10T05:46:45;2.27;;;0.30;;
68377;SDS011;55322;48.146;11.516;2023-05-10T05:49:10;3.50;;;0.40;;
68377;SDS011;55322;48.146;11.516;2023-05-10T05:51:35;4.37;;;0.50;;
68377;SDS011;55322;48.146;11.516;2023-05-10T05:54:00;3.33;;;0.40;;
68377;SDS011;55322;48.146;11.516;2023-05-10T05:56:26;3.05;;;0.32;;
68377;SDS011;55322;48.146;11.516;2023-05-10T05:58:52;2.67;;;0.40;;
68377;SDS011;55322;48.146;11.516;2023-05-10T06:01:17;2.80;;;0.40;;
68377;SDS011;55322;48.146;11.516;2023-05-10T06:03:42;3.20;;;0.50;;
68377;SDS011;55322;48.146;11.516;2023-05-10T06:06:08;2.83;;;0.50;;
68377;SDS011;55322;48.146;11.516;2023-05-10T06:08:33;2.27;;;0.40;;
68377;SDS011;55322;48.146;11.516;2023-05-10T06:10:59;2.28;;;0.30;;
68377;SDS011;55322;48.146;11.516;2023-05-10T06:13:25;5.53;;;0.50;;
68377;SDS011;55322;48.146;11.516;2023-05-10T06:15:53;3.50;;;0.50;;
68377;SDS011;55322;48.146;11.516;2023-05-10T06:18:19;3.80;;;0.50;;
68377;SDS011;55322;48.146;11.516;2023-05-10T06:20:44;2.80;;;0.40;;
68377;SDS011;55322;48.146;11.516;2023-05-10T06:23:09;3.20;;;0.40;;
68377;SDS011;55322;48.146;11.516;2023-05-10T06:25:35;4.07;;;0.60;;
68377;SDS011;55322;48.146;11.516;2023-05-10T06:28:00;4.63;;;0.60;;
68377;SDS011;55322;48.146;11.516;2023-05-10T06:30:26;4.32;;;0.50;;
68377;SDS011;55322;48.146;11.516;2023-05-10T06:32:53;3.08;;;0.40;;
68377;SDS011;55322;48.146;11.516;2023-05-10T06:35:19;2.70;;;0.40;;
68377;SDS011;55322;48.146;11.516;2023-05-10T06:37:44;3.92;;;0.50;;
68377;SDS011;55322;48.146;11.516;2023-05-10T06:40:10;5.33;;;0.60;;
68377;SDS011;55322;48.146;11.516;2023-05-10T06:42:35;2.93;;;0.50;;
68377;SDS011;55322;48.146;11.516;2023-05-10T06:45:01;3.07;;;0.60;;
68377;SDS011;55322;48.146;11.516;2023-05-10T06:47:26;3.40;;;0.60;;
68377;SDS011;55322;48.146;11.516;2023-05-10T06:49:51;6.77;;;0.60;;
68377;SDS011;55322;48.146;11.516;2023-05-10T06:52:17;3.47;;;0.60;;
68377;SDS011;55322;48.146;11.516;2023-05-10T06:54:42;4.07;;;0.90;;
68377;SDS011;55322;48.146;11.516;2023-05-10T06:57:07;3.60;;;0.60;;
68377;SDS011;55322;48.146;11.516;2023-05-10T06:59:33;4.60;;;0.80;;
68377;SDS011;55322;48.146;11.516;2023-05-10T07:01:58;3.83;;;0.80;;
68377;SDS011;55322;48.146;11.516;2023-05-10T07:04:23;5.20;;;0.80;;
68377;SDS011;55322;48.146;11.516;2023-05-10T07:06:49;3.50;;;0.70;;
68377;SDS011;55322;48.146;11.516;2023-05-10T07:09:14;6.47;;;1.43;;
68377;SDS011;55322;48.146;11.516;2023-05-10T07:11:40;3.97;;;0.85;;
68377;SDS011;55322;48.146;11.516;2023-05-10T07:14:06;6.03;;;0.70;;
68377;SDS011;55322;48.146;11.516;2023-05-10T07:16:31;4.33;;;1.10;;
68377;SDS011;55322;48.146;11.516;2023-05-10T07:18:56;4.73;;;0.80;;
68377;SDS011;55322;48.146;11.516;2023-05-10T07:21:22;5.20;;;0.70;;
68377;SDS011;55322;48.146;11.516;2023-05-10T07:23:49;3.40;;;0.70;;
68377;SDS011;55322;48.146;11.516;2023-05-10T07:26:14;3.35;;;0.70;;
68377;SDS011;55322;48.146;11.516;2023-05-10T07:28:40;4.33;;;0.70;;
68377;SDS011;55322;48.146;11.516;2023-05-10T07:31:05;4.10;;;1.10;;
68377;SDS011;55322;48.146;11.516;2023-05-10T07:33:31;3.45;;;0.60;;
68377;SDS011;55322;48.146;11.516;2023-05-10T07:35:56;4.53;;;1.00;;
68377;SDS011;55322;48.146;11.516;2023-05-10T07:38:22;3.27;;;0.70;;
68377;SDS011;55322;48.146;11.516;2023-05-10T07:40:47;3.60;;;0.70;;
68377;SDS011;55322;48.146;11.516;2023-05-10T07:43:12;3.40;;;0.70;;
68377;SDS011;55322;48.146;11.516;2023-05-10T07:45:38;4.13;;;0.60;;
68377;SDS011;55322;48.146;11.516;2023-05-10T07:48:03;3.70;;;0.70;;
68377;SDS011;55322;48.146;11.516;2023-05-10T07:50:28;2.90;;;0.50;;
68377;SDS011;55322;48.146;11.516;2023-05-10T07:52:54;3.50;;;0.67;;
68377;SDS011;55322;48.146;11.516;2023-05-10T07:55:19;5.97;;;0.60;;
68377;SDS011;55322;48.146;11.516;2023-05-10T07:57:46;3.30;;;0.60;;
68377;SDS011;55322;48.146;11.516;2023-05-10T08:00:16;3.60;;;0.50;;
68377;SDS011;55322;48.146;11.516;2023-05-10T08:02:43;2.83;;;0.52;;
68377;SDS011;55322;48.146;11.516;2023-05-10T08:05:08;5.07;;;0.53;;
68377;SDS011;55322;48.146;11.516;2023-05-10T08:07:34;4.30;;;0.70;;
68377;SDS011;55322;48.146;11.516;2023-05-10T08:09:59;4.33;;;0.60;;
68377;SDS011;55322;48.146;11.516;2023-05-10T08:12:25;4.23;;;0.90;;
68377;SDS011;55322;48.146;11.516;2023-05-10T08:14:50;3.23;;;0.43;;
68377;SDS011;55322;48.146;11.516;2023-05-10T08:17:16;5.57;;;0.50;;
68377;SDS011;55322;48.146;11.516;2023-05-10T08:19:41;5.03;;;0.60;;
68377;SDS011;55322;48.146;11.516;2023-05-10T08:22:06;3.00;;;0.50;;
68377;SDS011;55322;48.146;11.516;2023-05-10T08:24:32;4.27;;;0.57;;
68377;SDS011;55322;48.146;11.516;2023-05-10T08:26:57;3.87;;;0.50;;
68377;SDS011;55322;48.146;11.516;2023-05-10T08:29:22;3.27;;;0.40;;
68377;SDS011;55322;48.146;11.516;2023-05-10T08:31:48;3.50;;;0.50;;
68377;SDS011;55322;48.146;11.516;2023-05-10T08:34:13;3.10;;;0.57;;
68377;SDS011;55322;48.146;11.516;2023-05-10T08:36:38;2.97;;;0.50;;
68377;SDS011;55322;48.146;11.516;2023-05-10T08:39:04;6.33;;;0.60;;
68377;SDS011;55322;48.146;11.516;2023-05-10T08:41:29;3.10;;;0.50;;
68377;SDS011;55322;48.146;11.516;2023-05-10T08:43:56;3.22;;;0.60;;
68377;SDS011;55322;48.146;11.516;2023-05-10T08:46:22;3.13;;;0.50;;
68377;SDS011;55322;48.146;11.516;2023-05-10T08:48:48;4.28;;;0.60;;
68377;SDS011;55322;48.146;11.516;2023-05-10T08:51:19;3.45;;;0.60;;
68377;SDS011;55322;48.146;11.516;2023-05-10T08:53:47;3.37;;;0.50;;
68377;SDS011;55322;48.146;11.516;2023-05-10T08:56:13;3.67;;;0.60;;
68377;SDS011;55322;48.146;11.516;2023-05-10T08:58:40;3.63;;;0.50;;
68377;SDS011;55322;48.146;11.516;2023-05-10T09:01:06;3.47;;;0.60;;
68377;SDS011;55322;48.146;11.516;2023-05-10T09:03:32;3.05;;;0.60;;
68377;SDS011;55322;48.146;11.516;2023-05-10T09:05:57;3.17;;;0.60;;
68377;SDS011;55322;48.146;11.516;2023-05-10T09:08:23;4.03;;;0.60;;
68377;SDS011;55322;48.146;11.516;2023-05-10T09:10:52;4.80;;;0.70;;
68377;SDS011;55322;48.146;11.516;2023-05-10T09:13:19;4.22;;;0.63;;
68377;SDS011;55322;48.146;11.516;2023-05-10T09:15:45;5.07;;;0.90;;
68377;SDS011;55322;48.146;11.516;2023-05-10T09:18:12;3.03;;;0.50;;
68377;SDS011;55322;48.146;11.516;2023-05-10T09:20:37;4.57;;;0.50;;
68377;SDS011;55322;48.146;11.516;2023-05-10T09:23:02;3.37;;;0.60;;
68377;SDS011;55322;48.146;11.516;2023-05-10T09:25:28;3.50;;;0.50;;
68377;SDS011;55322;48.146;11.516;2023-05-10T09:27:53;5.23;;;0.50;;
68377;SDS011;55322;48.146;11.516;2023-05-10T09:30:23;3.50;;;0.50;;
68377;SDS011;55322;48.146;11.516;2023-05-10T09:32:51;3.75;;;0.50;;
68377;SDS011;55322;48.146;11.516;2023-05-10T09:35:18;4.85;;;0.50;;
68377;SDS011;55322;48.146;11.516;2023-05-10T09:37:45;3.25;;;0.50;;
68377;SDS011;55322;48.146;11.516;2023-05-10T09:40:19;3.93;;;0.63;;
68377;SDS011;55322;48.146;11.516;2023-05-10T09:45:31;3.40;;;0.57;;
68377;SDS011;55322;48.146;11.516;2023-05-10T09:47:57;2.65;;;0.45;;
68377;SDS011;55322;48.146;11.516;2023-05-10T09:50:24;3.50;;;0.50;;
68377;SDS011;55322;48.146;11.516;2023-05-10T09:53:00;3.57;;;0.50;;
68377;SDS011;55322;48.146;11.516;2023-05-10T09:55:44;3.30;;;0.43;;
68377;SDS011;55322;48.146;11.516;2023-05-10T09:58:11;3.33;;;0.57;;
68377;SDS011;55322;48.146;11.516;2023-05-10T10:00:37;2.75;;;0.50;;
68377;SDS011;55322;48.146;11.516;2023-05-10T10:03:04;4.95;;;0.60;;
68377;SDS011;55322;48.146;11.516;2023-05-10T10:05:30;3.97;;;0.50;;
68377;SDS011;55322;48.146;11.516;2023-05-10T10:07:57;4.03;;;0.60;;
68377;SDS011;55322;48.146;11.516;2023-05-10T10:10:26;4.47;;;0.50;;
68377;SDS011;55322;48.146;11.516;2023-05-10T10:12:53;3.50;;;0.70;;
68377;SDS011;55322;48.146;11.516;2023-05-10T10:15:20;4.18;;;0.50;;
68377;SDS011;55322;48.146;11.516;2023-05-10T10:17:45;4.20;;;0.60;;
68377;SDS011;55322;48.146;11.516;2023-05-10T10:20:12;5.35;;;0.60;;
68377;SDS011;55322;48.146;11.516;2023-05-10T10:22:37;3.42;;;0.60;;
68377;SDS011;55322;48.146;11.516;2023-05-10T10:25:04;4.10;;;0.60;;
68377;SDS011;55322;48.146;11.516;2023-05-10T10:27:39;4.95;;;0.50;;
68377;SDS011;55322;48.146;11.516;2023-05-10T10:30:20;3.38;;;0.60;;
68377;SDS011;55322;48.146;11.516;2023-05-10T10:35:38;2.40;;;0.40;;
68377;SDS011;55322;48.146;11.516;2023-05-10T10:38:04;3.97;;;0.57;;
68377;SDS011;55322;48.146;11.516;2023-05-10T10:40:33;3.53;;;0.60;;
68377;SDS011;55322;48.146;11.516;2023-05-10T10:46:09;4.22;;;0.50;;
68377;SDS011;55322;48.146;11.516;2023-05-10T10:49:07;4.07;;;0.73;;
68377;SDS011;55322;48.146;11.516;2023-05-10T10:51:37;4.38;;;0.50;;
68377;SDS011;55322;48.146;11.516;2023-05-10T10:54:09;3.93;;;0.50;;
68377;SDS011;55322;48.146;11.516;2023-05-10T10:56:35;6.53;;;0.68;;
68377;SDS011;55322;48.146;11.516;2023-05-10T10:59:00;6.25;;;0.90;;
68377;SDS011;55322;48.146;11.516;2023-05-10T11:01:26;4.60;;;0.70;;
68377;SDS011;55322;48.146;11.516;2023-05-10T11:06:30;5.27;;;0.90;;
68377;SDS011;55322;48.146;11.516;2023-05-10T11:08:59;5.40;;;0.90;;
68377;SDS011;55322;48.146;11.516;2023-05-10T11:11:30;4.18;;;0.80;;
68377;SDS011;55322;48.146;11.516;2023-05-10T11:13:56;4.63;;;1.10;;
68377;SDS011;55322;48.146;11.516;2023-05-10T11:16:28;4.07;;;0.80;;
68377;SDS011;55322;48.146;11.516;2023-05-10T11:19:15;3.58;;;0.77;;
68377;SDS011;55322;48.146;11.516;2023-05-10T11:21:45;4.50;;;0.80;;
68377;SDS011;55322;48.146;11.516;2023-05-10T11:24:18;4.30;;;0.60;;
68377;SDS011;55322;48.146;11.516;2023-05-10T11:26:49;5.10;;;0.80;;
68377;SDS011;55322;48.146;11.516;2023-05-10T11:29:15;4.22;;;0.95;;
68377;SDS011;55322;48.146;11.516;2023-05-10T11:31:44;4.63;;;0.82;;
68377;SDS011;55322;48.146;11.516;2023-05-10T11:34:10;4.17;;;0.77;;
68377;SDS011;55322;48.146;11.516;2023-05-10T11:36:36;4.75;;;0.75;;
68377;SDS011;55322;48.146;11.516;2023-05-10T11:39:01;5.60;;;1.00;;
68377;SDS011;55322;48.146;11.516;2023-05-10T11:41:28;4.85;;;1.10;;
68377;SDS011;55322;48.146;11.516;2023-05-10T11:43:55;6.63;;;1.15;;
68377;SDS011;55322;48.146;11.516;2023-05-10T11:46:21;5.78;;;1.35;;
68377;SDS011;55322;48.146;11.516;2023-05-10T11:48:52;5.55;;;1.50;;
68377;SDS011;55322;48.146;11.516;2023-05-10T11:51:24;4.83;;;1.00;;
68377;SDS011;55322;48.146;11.516;2023-05-10T11:53:51;4.18;;;1.00;;
68377;SDS011;55322;48.146;11.516;2023-05-10T11:56:18;4.50;;;0.85;;
68377;SDS011;55322;48.146;11.516;2023-05-10T11:58:43;5.03;;;1.03;;
68377;SDS011;55322;48.146;11.516;2023-05-10T12:01:09;5.53;;;0.70;;
68377;SDS011;55322;48.146;11.516;2023-05-10T12:03:35;3.92;;;0.88;;
68377;SDS011;55322;48.146;11.516;2023-05-10T12:06:01;3.60;;;0.70;;
68377;SDS011;55322;48.146;11.516;2023-05-10T12:08:28;6.80;;;1.10;;
68377;SDS011;55322;48.146;11.516;2023-05-10T12:11:03;3.88;;;0.77;;
68377;SDS011;55322;48.146;11.516;2023-05-10T12:13:37;4.67;;;0.90;;
68377;SDS011;55322;48.146;11.516;2023-05-10T12:16:17;3.88;;;0.73;;
68377;SDS011;55322;48.146;11.516;2023-05-10T12:18:44;4.82;;;0.88;;
68377;SDS011;55322;48.146;11.516;2023-05-10T12:21:10;4.75;;;0.90;;
68377;SDS011;55322;48.146;11.516;2023-05-10T12:23:37;5.72;;;0.80;;
68377;SDS011;55322;48.146;11.516;2023-05-10T12:26:03;4.53;;;0.80;;
68377;SDS011;55322;48.146;11.516;2023-05-10T12:28:29;6.55;;;1.02;;
68377;SDS011;55322;48.146;11.516;2023-05-10T12:30:57;6.03;;;0.70;;
68377;SDS011;55322;48.146;11.516;2023-05-10T12:33:22;7.53;;;1.10;;
68377;SDS011;55322;48.146;11.516;2023-05-10T12:35:51;6.77;;;1.67;;
68377;SDS011;55322;48.146;11.516;2023-05-10T12:38:28;5.60;;;1.10;;
68377;SDS011;55322;48.146;11.516;2023-05-10T12:41:00;5.53;;;0.97;;
68377;SDS011;55322;48.146;11.516;2023-05-10T12:43:27;4.00;;;0.80;;
68377;SDS011;55322;48.146;11.516;2023-05-10T12:45:52;4.20;;;1.00;;
68377;SDS011;55322;48.146;11.516;2023-05-10T12:48:18;5.70;;;1.10;;
68377;SDS011;55322;48.146;11.516;2023-05-10T12:50:43;4.20;;;0.70;;
68377;SDS011;55322;48.146;11.516;2023-05-10T12:53:09;4.63;;;1.00;;
68377;SDS011;55322;48.146;11.516;2023-05-10T12:55:34;5.40;;;1.00;;
68377;SDS011;55322;48.146;11.516;2023-05-10T12:57:59;4.70;;;0.90;;
68377;SDS011;55322;48.146;11.516;2023-05-10T13:00:25;6.83;;;1.20;;
68377;SDS011;55322;48.146;11.516;2023-05-10T13:02:50;4.30;;;0.93;;
68377;SDS011;55322;48.146;11.516;2023-05-10T13:05:15;3.90;;;0.70;;
68377;SDS011;55322;48.146;11.516;2023-05-10T13:07:41;3.80;;;0.80;;
68377;SDS011;55322;48.146;11.516;2023-05-10T13:10:08;4.80;;;0.90;;
68377;SDS011;55322;48.146;11.516;2023-05-10T13:12:34;4.28;;;1.08;;
68377;SDS011;55322;48.146;11.516;2023-05-10T13:14:59;4.33;;;1.20;;
68377;SDS011;55322;48.146;11.516;2023-05-10T13:17:25;5.00;;;1.20;;
68377;SDS011;55322;48.146;11.516;2023-05-10T13:19:50;4.60;;;1.15;;
68377;SDS011;55322;48.146;11.516;2023-05-10T13:22:16;4.47;;;1.10;;
68377;SDS011;55322;48.146;11.516;2023-05-10T13:24:42;4.60;;;1.17;;
68377;SDS011;55322;48.146;11.516;2023-05-10T13:27:08;6.03;;;1.10;;
68377;SDS011;55322;48.146;11.516;2023-05-10T13:29:33;4.50;;;1.10;;
68377;SDS011;55322;48.146;11.516;2023-05-10T13:31:58;5.30;;;1.20;;
68377;SDS011;55322;48.146;11.516;2023-05-10T13:34:24;5.17;;;1.20;;
68377;SDS011;55322;48.146;11.516;2023-05-10T13:36:49;5.83;;;1.00;;
68377;SDS011;55322;48.146;11.516;2023-05-10T13:39:15;4.38;;;0.80;;
68377;SDS011;55322;48.146;11.516;2023-05-10T13:41:40;4.27;;;0.80;;
68377;SDS011;55322;48.146;11.516;2023-05-10T13:44:06;5.07;;;1.17;;
68377;SDS011;55322;48.146;11.516;2023-05-10T13:46:31;3.67;;;0.90;;
68377;SDS011;55322;48.146;11.516;2023-05-10T13:48:56;5.22;;;0.95;;
68377;SDS011;55322;48.146;11.516;2023-05-10T13:51:22;5.07;;;0.67;;
68377;SDS011;55322;48.146;11.516;2023-05-10T13:53:47;3.90;;;0.60;;
68377;SDS011;55322;48.146;11.516;2023-05-10T13:56:13;5.63;;;1.03;;
68377;SDS011;55322;48.146;11.516;2023-05-10T13:58:39;6.10;;;0.95;;
68377;SDS011;55322;48.146;11.516;2023-05-10T14:01:04;5.33;;;0.80;;
68377;SDS011;55322;48.146;11.516;2023-05-10T14:03:30;3.80;;;0.98;;
68377;SDS011;55322;48.146;11.516;2023-05-10T14:05:55;5.47;;;1.00;;
68377;SDS011;55322;48.146;11.516;2023-05-10T14:08:21;3.13;;;0.60;;
68377;SDS011;55322;48.146;11.516;2023-05-10T14:10:47;5.22;;;0.90;;
68377;SDS011;55322;48.146;11.516;2023-05-10T14:13:13;4.38;;;0.90;;
68377;SDS011;55322;48.146;11.516;2023-05-10T14:15:39;3.80;;;0.80;;
68377;SDS011;55322;48.146;11.516;2023-05-10T14:18:04;4.17;;;0.80;;
68377;SDS011;55322;48.146;11.516;2023-05-10T14:20:29;3.60;;;0.70;;
68377;SDS011;55322;48.146;11.516;2023-05-10T14:22:55;3.60;;;0.70;;
68377;SDS011;55322;48.146;11.516;2023-05-10T14:25:20;3.70;;;0.70;;
68377;SDS011;55322;48.146;11.516;2023-05-10T14:27:46;4.57;;;0.70;;
68377;SDS011;55322;48.146;11.516;2023-05-10T14:30:11;4.90;;;1.07;;
68377;SDS011;55322;48.146;11.516;2023-05-10T14:32:37;6.13;;;0.90;;
68377;SDS011;55322;48.146;11.516;2023-05-10T14:35:02;6.80;;;1.30;;
68377;SDS011;55322;48.146;11.516;2023-05-10T14:37:28;5.40;;;1.00;;
68377;SDS011;55322;48.146;11.516;2023-05-10T14:39:53;4.87;;;0.93;;
68377;SDS011;55322;48.146;11.516;2023-05-10T14:42:19;4.37;;;0.80;;
68377;SDS011;55322;48.146;11.516;2023-05-10T14:44:44;4.53;;;0.70;;
68377;SDS011;55322;48.146;11.516;2023-05-10T14:47:09;3.80;;;0.63;;
68377;SDS011;55322;48.146;11.516;2023-05-10T14:49:35;3.73;;;0.80;;
68377;SDS011;55322;48.146;11.516;2023-05-10T14:52:00;3.43;;;0.60;;
68377;SDS011;55322;48.146;11.516;2023-05-10T14:54:25;4.87;;;0.70;;
68377;SDS011;55322;48.146;11.516;2023-05-10T14:56:51;5.13;;;0.93;;
68377;SDS011;55322;48.146;11.516;2023-05-10T14:59:16;4.17;;;0.70;;